Terminal Aerodrome Forecast
Issued by NWS

Current Version | Previous Version | Graphics & Text | Print | Product List | Glossary On
Versions: 1 2 3 4 5 6 7 8 9 10 11 12 13 14 15 16 17 18 19 20 21 22 23 24 25 26 27 28
000
FTUS41 KILN 280528
TAFLUK
TAF
KLUK 280528Z 2806/2906 00000KT P6SM SCT200
     FM281300 12006KT P6SM BKN200
     FM290000 11007KT P6SM VCSH SCT050 BKN080
     FM290300 18009KT P6SM VCSH OVC060 WS020/21040KT=

USA.gov is the U.S. government's official web portal to all federal, state and local government web resources and services.